• Join FlightAware (Why Join?)
  • Login
  • US Flag 
04:23AM EDT


 

Airport Tracker/Info


-or-


 

Live Flight TrackerFlight Track Log ✈ SAS4416 ✈ 17-Jun-2013 ✈ ENGM / OSL - ENTC / TOS

Flight Track Log - Related Links

Times and Time Zones

All times are in EDT time to prevent confusion due to time zone crossing. See the SAS4416 flight status page for this flight to view local times or setup timezone preferences in your user account.

Time Position Orientation Groundspeed Altitude Reporting Facility
EDT Latitude Longitude Course Direction KTS MPH feet Rate Location/Type
06:05AM 60.1470 10.9030 16° North 263 303 5,100  Level FlightAware
06:05AM 60.1540 10.8450 284° West 261 300 6,500 3,060 Climbing FlightAware
06:06AM 60.5307 11.2933 16° North  Level Estimated
06:06AM 60.1690 10.8080 309° West 272 313 7,400  Level FlightAware
06:06AM 60.1810 10.7980 337° Northwest 272 313 8,000 3,420 Climbing FlightAware
06:06AM 60.2170 10.8070 North 280 322 9,700 2,160 Climbing FlightAware
06:07AM 60.2700 10.8680 30° Northeast 327 376 10,700 1,740 Climbing FlightAware
06:08AM 60.3280 10.9340 29° Northeast 346 398 12,200 2,280 Climbing FlightAware
06:08AM 60.3840 11.0010 31° Northeast 357 411 13,800 2,220 Climbing FlightAware
06:09AM 60.4480 11.0780 31° Northeast 370 426 15,400 2,160 Climbing FlightAware
06:10AM 60.4970 11.1370 31° Northeast 379 436 16,700 2,340 Climbing FlightAware
06:10AM 60.5690 11.2230 30° Northeast 390 449 18,500 2,100 Climbing FlightAware
06:11AM 60.6210 11.2850 30° Northeast 397 457 19,900 2,400 Climbing FlightAware
06:12AM 60.7050 11.3850 30° Northeast 407 468 22,000 2,640 Climbing FlightAware
06:13AM 60.7860 11.4510 22° Northeast 413 475 23,800 2,400 Climbing FlightAware
06:13AM 60.8570 11.5060 21° North 422 486 25,400 2,220 Climbing FlightAware
06:14AM 60.9600 11.5850 20° North 432 497 27,400 2,040 Climbing FlightAware
06:15AM 61.0430 11.6480 20° North 441 507 28,800 1,800 Climbing FlightAware
06:16AM 61.1240 11.7070 19° North 449 517 30,000 1,860 Climbing FlightAware
06:16AM 61.2040 11.7570 17° North 444 511 31,400 1,920 Climbing FlightAware
06:17AM 61.2930 11.7680 North 439 505 32,800 1,740 Climbing FlightAware
06:18AM 61.3750 11.7690 360° North 443 510 33,900 1,380 Climbing FlightAware
06:18AM 61.4560 11.7710 North 448 516 34,700 1,320 Climbing FlightAware
06:19AM 61.5930 11.7740 North 449 517 36,300 1,260 Climbing FlightAware
06:20AM 61.6790 11.7760 North 451 519 37,000 360 Climbing FlightAware
06:21AM 61.8050 11.7780 360° North 452 520 37,000  Level FlightAware
06:22AM 61.8900 11.7790 360° North 451 519 37,000  Level FlightAware
06:23AM 61.9800 11.7800 360° North 451 519 37,000  Level FlightAware
06:23AM 62.0650 11.7820 North 451 519 37,000  Level FlightAware
06:24AM 62.1600 11.7840 North 452 520 37,000  Level FlightAware
06:25AM 62.2430 11.7860 North 452 520 37,000  Level FlightAware
06:25AM 62.3330 11.7870 360° North 453 521 37,000  Level FlightAware
06:26AM 62.4240 11.7880 360° North 456 525 37,000  Level FlightAware
06:27AM 62.5070 11.7900 North 457 526 37,000  Level FlightAware
06:28AM 62.6010 11.7910 360° North 459 528 37,000  Level FlightAware
06:28AM 62.6930 11.7930 North 456 525 37,000  Level FlightAware
06:29AM 62.7770 11.7940 360° North 454 522 37,000  Level FlightAware
06:29AM 62.8180 11.7950 North 454 522 37,000  Level FlightAware
06:30AM 62.9400 11.7980 North 453 521 37,000  Level FlightAware
06:31AM 63.0290 11.7990 360° North 452 520 37,000  Level FlightAware
06:32AM 63.1520 11.8010 360° North 452 520 37,000  Level FlightAware
06:33AM 63.2330 11.8030 North 453 521 37,000  Level FlightAware
06:33AM 63.3260 11.8070 North 456 525 37,000  Level FlightAware
06:34AM 63.4160 11.8590 14° North 462 532 37,000  Level FlightAware
06:35AM 63.4960 11.9240 20° North 462 532 37,000  Level FlightAware
06:35AM 63.5770 11.9890 20° North 462 532 37,000  Level FlightAware
06:36AM 63.6670 12.0640 20° North 462 532 37,000  Level FlightAware
06:37AM 63.7540 12.1360 20° North 463 533 37,000  Level FlightAware
06:38AM 63.8370 12.2050 20° North 462 532 37,000  Level FlightAware
06:38AM 63.9240 12.2760 20° North 461 531 37,000  Level FlightAware
06:39AM 64.0050 12.3440 20° North 461 531 37,000  Level FlightAware
06:40AM 64.0930 12.4190 20° North 462 532 37,000  Level FlightAware
06:40AM 64.1730 12.4870 20° North 462 532 37,000  Level FlightAware
06:41AM 64.2540 12.5570 21° North 462 532 37,000  Level FlightAware
06:42AM 64.3420 12.6330 20° North 462 532 37,000  Level FlightAware
06:43AM 64.4300 12.7090 20° North 462 532 37,000  Level FlightAware
06:43AM 64.5100 12.7780 20° North 463 533 37,000  Level FlightAware
06:44AM 64.5930 12.8520 21° North 463 533 37,000  Level FlightAware
06:45AM 64.6770 12.9260 21° North 462 532 37,000  Level FlightAware
06:45AM 64.7650 13.0040 21° North 463 533 37,000  Level FlightAware
06:46AM 64.8440 13.0750 21° North 462 532 37,000  Level FlightAware
06:47AM 64.9190 13.1430 21° North 463 533 37,000  Level FlightAware
06:47AM 65.0110 13.2270 21° North 461 531 37,000  Level FlightAware
06:48AM 65.0970 13.3050 21° North 465 535 37,000  Level FlightAware
06:49AM 65.1750 13.3770 21° North 468 539 37,000  Level FlightAware
06:49AM 65.2560 13.4530 21° North 471 542 37,000  Level FlightAware
06:50AM 65.3470 13.5390 22° Northeast 470 541 37,000  Level FlightAware
06:51AM 65.4380 13.6250 21° North 468 539 37,000  Level FlightAware
06:52AM 65.5180 13.7000 21° North 468 539 37,000  Level FlightAware
06:52AM 65.5990 13.7770 21° North 466 536 37,000  Level FlightAware
06:53AM 65.6790 13.8530 21° North 467 537 37,000  Level FlightAware
06:54AM 65.7690 13.9410 22° Northeast 468 539 37,000  Level FlightAware
06:54AM 65.8480 14.0260 24° Northeast 460 529 37,000  Level FlightAware
06:55AM 65.9370 14.1220 24° Northeast 461 531 37,000  Level FlightAware
06:56AM 66.0160 14.2090 24° Northeast 458 527 37,000  Level FlightAware
06:56AM 66.0940 14.2960 24° Northeast 458 527 37,000  Level FlightAware
06:57AM 66.1720 14.3830 24° Northeast 457 526 37,000  Level FlightAware
06:58AM 66.2520 14.4730 24° Northeast 463 533 37,000  Level FlightAware
06:59AM 66.3360 14.5680 24° Northeast 462 532 37,000  Level FlightAware
06:59AM 66.4190 14.6620 24° Northeast 463 533 37,000  Level FlightAware
07:00AM 66.5060 14.7620 25° Northeast 462 532 37,000  Level FlightAware
07:01AM 66.5840 14.8510 24° Northeast 463 533 37,000  Level FlightAware
07:01AM 66.6630 14.9440 25° Northeast 463 533 37,000  Level FlightAware
07:02AM 66.7700 15.0710 25° Northeast 464 534 37,000  Level FlightAware
07:03AM 66.8660 15.1840 25° Northeast 463 533 37,000  Level FlightAware
07:04AM 66.9450 15.2680 23° Northeast 454 522 37,000  Level FlightAware
07:04AM 67.0230 15.3460 21° North 452 520 37,000  Level FlightAware
07:05AM 67.1020 15.4270 22° Northeast 451 519 37,000  Level FlightAware
07:06AM 67.1790 15.5070 22° Northeast 452 520 37,000  Level FlightAware
07:06AM 67.2610 15.5920 22° Northeast 454 522 37,000  Level FlightAware
07:07AM 67.3280 15.6630 22° Northeast 455 524 37,000  Level FlightAware
07:08AM 67.4080 15.7460 22° Northeast 455 524 37,000  Level FlightAware
07:08AM 67.4870 15.8310 22° Northeast 454 522 37,000  Level FlightAware
07:09AM 67.5720 15.9220 22° Northeast 454 522 37,000  Level FlightAware
07:10AM 67.6580 16.0140 22° Northeast 454 522 37,000  Level FlightAware
07:11AM 67.7390 16.1020 22° Northeast 454 522 37,000  Level FlightAware
07:11AM 67.8050 16.1730 22° Northeast 455 524 37,000  Level FlightAware
07:12AM 67.9020 16.2800 23° Northeast 457 526 37,000  Level FlightAware
07:13AM 67.9820 16.3690 23° Northeast 458 527 37,000  Level FlightAware
07:13AM 68.0710 16.4680 23° Northeast 459 528 37,000  Level FlightAware
07:14AM 68.1500 16.5580 23° Northeast 467 537 37,000  Level FlightAware
07:15AM 68.2380 16.6570 23° Northeast 468 539 37,000  Level FlightAware
07:15AM 68.3200 16.7510 23° Northeast 469 540 37,000  Level FlightAware
07:16AM 68.4090 16.8540 23° Northeast 469 540 37,000 -120 Level FlightAware
07:17AM 68.4860 16.9440 23° Northeast 454 522 36,900 -780 Descending FlightAware
07:18AM 68.5720 17.0460 23° Northeast 437 503 35,900 -2,340 Descending FlightAware
07:18AM 68.6480 17.1350 23° Northeast 453 521 33,600 -3,720 Descending FlightAware
07:19AM 68.7360 17.2390 23° Northeast 469 540 30,700 -3,360 Descending FlightAware
07:20AM 68.8130 17.3330 24° Northeast 454 522 28,900 -2,700 Descending FlightAware
07:20AM 68.8920 17.4280 23° Northeast 444 511 27,100 -2,520 Descending FlightAware
07:21AM 68.9750 17.5290 24° Northeast 435 501 25,400 -2,280 Descending FlightAware
07:22AM 69.0470 17.6180 24° Northeast 422 486 23,900 -2,280 Descending FlightAware
07:22AM 69.1270 17.7170 24° Northeast 404 465 22,200 -2,220 Descending FlightAware
07:23AM 69.1950 17.8020 24° Northeast 401 461 20,800 -2,220 Descending FlightAware
07:24AM 69.2610 17.8860 24° Northeast 392 451 19,300 -2,280 Descending FlightAware
07:24AM 69.3260 17.9680 24° Northeast 388 447 17,800 -2,280 Descending FlightAware
07:25AM 69.4010 18.0590 23° Northeast 380 437 16,100 -2,100 Descending FlightAware
07:26AM 69.4650 18.1260 20° North 369 425 14,900 -1,920 Descending FlightAware
07:27AM 69.5360 18.1990 20° North 361 415 13,400 -1,980 Descending FlightAware
07:27AM 69.5970 18.2630 20° North 354 407 12,100 -1,980 Descending FlightAware
07:28AM 69.6660 18.3350 20° North 346 398 10,600 -1,500 Descending FlightAware
07:29AM 69.7240 18.3960 20° North 316 364 10,000 -780 Descending FlightAware
07:29AM 69.7410 18.4150 21° North 307 353 9,900 -780 Descending FlightAware
07:29AM 69.7760 18.4520 20° North 293 337 9,500 -1,140 Descending FlightAware
07:30AM 69.8130 18.4920 20° North 289 333 8,900 -1,440 Descending FlightAware
07:30AM 69.8430 18.5330 25° Northeast 289 333 8,200 -1,500 Descending FlightAware
07:31AM 69.8640 18.5810 38° Northeast 286 329 7,800 -1,200 Descending FlightAware
07:31AM 69.8770 18.6290 52° Northeast 285 328 7,400 -1,260 Descending FlightAware
07:31AM 69.8970 18.7260 59° Northeast 281 323 6,700 -1,380 Descending FlightAware
07:32AM 69.9130 18.8580 71° East 259 298 6,000 -900 Descending FlightAware
07:33AM 69.8970 18.9650 113° Southeast 221 254 5,700 -660 Descending FlightAware
07:33AM 69.8760 19.0050 147° Southeast 202 232 5,300 -900 Descending FlightAware
07:33AM 69.8650 19.0260 147° Southeast 199 229 5,100 -1,440 Descending FlightAware
07:34AM 69.8550 19.0290 174° South 206 237 4,700 -1,800 Descending FlightAware
07:34AM 69.8270 19.0170 188° South 203 234 3,900 -1,500 Descending FlightAware
07:35AM 69.8020 18.9980 195° South 183 211 3,200 -1,500 Descending FlightAware
07:35AM 69.7900 18.9900 193° South 178 205 2,800 -1,380 Descending FlightAware
07:35AM 69.7670 18.9740 194° South 165 190 2,200 -1,200 Descending FlightAware
07:36AM 69.7480 18.9620 192° South 156 180 1,700 -1,140 Descending FlightAware
07:36AM 69.7290 18.9490 193° South 138 159 1,200 -1,080 Descending FlightAware
07:36AM 69.7200 18.9440 191° South 135 155 900 -1,080 Descending FlightAware
07:37AM 69.7050 18.9340 193° South 130 150 500 -900 Descending FlightAware
07:37AM 69.6870 18.9220 193° South 122 140 100 -840 Descending FlightAware
07:38AM 69.6810 18.9170 196° South 17 20 -240 Descending FlightAware
07:38AM 69.6800 18.9130 234° Southwest 119 137  Level FlightAware
07:39AM 69.6690 18.9020 199° South 119 137  Level FlightAware